Zielona Gora, Poland
Current Conditions -  °F | °C
As of 5:30 PM on Friday 28 Nov 2014 (Local Time) from EPZG Reporting Station
Overcast Overcast  
Wind Chill: 23°   Ceiling: 3600
Heat Index: 32°   Visibility: 6mi
Dew Point: 25°   Wind: 13mph
Humidity: 75%   Direction: 80°E
Pressure: 30.18"   Gusts: NA
Location:  51.94°N, 15.49°E
Report Text: EPZG 281530Z 08011KT 050V110 9999 OVC036 M00/M04 Q1022
Loading
Personal Weather Stations






























Interactive Weather Map New forecast layout! Learn more

10-Day Weather Forecast

Advertisements
Track Severe Weather on mobile